Time;durP1;ratioP1;P1;durP2;ratioP2;P2;SDS_P1;SDS_P2;PMS_P1;PMS_P2;Temp;Humidity;BMP_temperature;BMP_pressure;BME280_temperature;BME280_humidity;BME280_pressure;Samples;Min_cycle;Max_cycle;Signal;HPM_P1;HPM_P2
2021/04/23 00:00:34;;;;;;;14.55;5.00;;;7.30;71.30;;;;;;2071165;28;20028;-69
2021/04/23 00:01:35;;;;;;;13.30;5.20;;;7.30;71.00;;;;;;2068052;28;20033;-69
2021/04/23 00:02:35;;;;;;;10.63;4.70;;;7.30;71.00;;;;;;2078330;28;20034;-69
2021/04/23 00:03:40;;;;;;;12.00;4.78;;;7.30;71.80;;;;;;2076908;28;20025;-69
2021/04/23 00:04:41;;;;;;;10.43;4.72;;;7.20;71.20;;;;;;2074182;28;20034;-68
2021/04/23 00:05:42;;;;;;;12.55;5.00;;;7.20;71.20;;;;;;2073194;28;20034;-68
2021/04/23 00:06:48;;;;;;;11.68;4.93;;;7.20;71.50;;;;;;2073017;28;20037;-68
2021/04/23 00:07:49;;;;;;;15.23;5.10;;;7.20;71.40;;;;;;2073143;28;20053;-69
2021/04/23 00:08:57;;;;;;;14.48;4.80;;;7.20;71.20;;;;;;2073095;28;20030;-68
2021/04/23 00:09:58;;;;;;;9.93;4.20;;;7.20;71.60;;;;;;2072958;28;20132;-69
2021/04/23 00:10:59;;;;;;;10.95;4.53;;;7.20;70.80;;;;;;2072397;28;20038;-69
2021/04/23 00:12:10;;;;;;;15.98;5.03;;;7.20;71.10;;;;;;2072387;28;20424;-69
2021/04/23 00:13:12;;;;;;;10.32;4.60;;;7.10;71.10;;;;;;2073071;28;20030;-69
2021/04/23 00:14:14;;;;;;;10.35;4.68;;;7.10;71.50;;;;;;2072347;28;20022;-69
2021/04/23 00:15:18;;;;;;;13.95;5.07;;;7.10;73.00;;;;;;2072457;28;20040;-69
2021/04/23 00:16:19;;;;;;;12.63;4.80;;;7.10;72.00;;;;;;2079714;28;20018;-69
2021/04/23 00:17:20;;;;;;;11.93;4.93;;;7.10;71.80;;;;;;2072972;28;20029;-70
2021/04/23 00:18:21;;;;;;;11.50;5.00;;;7.10;72.40;;;;;;2080573;28;20164;-69
2021/04/23 00:19:23;;;;;;;10.50;4.30;;;7.10;71.80;;;;;;2080557;28;20095;-69
2021/04/23 00:20:27;;;;;;;14.38;4.72;;;7.10;72.00;;;;;;2072882;28;20116;-69
2021/04/23 00:21:28;;;;;;;12.32;4.68;;;7.10;72.80;;;;;;2073022;28;20105;-71
2021/04/23 00:22:28;;;;;;;9.75;4.50;;;7.10;72.70;;;;;;2073011;28;20030;-69
2021/04/23 00:23:29;;;;;;;14.10;4.80;;;7.10;72.50;;;;;;2072962;28;20106;-69
2021/04/23 00:24:30;;;;;;;9.45;4.45;;;7.10;72.70;;;;;;2071910;28;20053;-70
2021/04/23 00:25:32;;;;;;;14.10;4.72;;;7.10;72.70;;;;;;2072340;28;20636;-69
2021/04/23 00:26:33;;;;;;;11.57;4.55;;;7.10;73.00;;;;;;2072559;28;20018;-69
2021/04/23 00:27:34;;;;;;;12.10;4.80;;;7.10;72.50;;;;;;2072109;28;20033;-70
2021/04/23 00:28:36;;;;;;;14.93;4.72;;;7.10;72.30;;;;;;2072316;28;20065;-70
2021/04/23 00:29:37;;;;;;;10.38;4.50;;;7.10;71.80;;;;;;2072647;28;20117;-69
2021/04/23 00:30:48;;;;;;;14.00;4.82;;;7.10;72.40;;;;;;2072963;28;20041;-69
2021/04/23 00:33:10;;;;;;;11.02;4.60;;;7.10;71.50;;;;;;2072883;28;20026;-69
2021/04/23 00:34:11;;;;;;;13.90;4.47;;;7.00;71.30;;;;;;2065090;28;20030;-69
2021/04/23 00:35:13;;;;;;;12.02;4.65;;;7.00;72.00;;;;;;2072575;28;20495;-69
2021/04/23 00:36:13;;;;;;;12.07;4.43;;;7.00;72.80;;;;;;2071868;28;20033;-69
2021/04/23 00:37:14;;;;;;;9.43;4.65;;;6.90;72.50;;;;;;2072274;28;20045;-71
2021/04/23 00:38:22;;;;;;;9.95;5.00;;;6.90;72.30;;;;;;2064117;28;20038;-71
2021/04/23 00:39:22;;;;;;;12.77;4.90;;;6.90;72.40;;;;;;2072370;28;20021;-71
2021/04/23 00:40:32;;;;;;;12.02;4.82;;;6.90;73.10;;;;;;2072835;28;20030;-71
2021/04/23 00:41:35;;;;;;;13.10;5.32;;;6.90;73.60;;;;;;2072877;28;20068;-71
2021/04/23 00:42:36;;;;;;;10.80;4.45;;;6.90;73.20;;;;;;2072761;28;20045;-71
2021/04/23 00:43:40;;;;;;;10.55;5.05;;;6.80;72.40;;;;;;2072745;28;20389;-71
2021/04/23 00:44:41;;;;;;;14.13;4.72;;;6.80;72.20;;;;;;2072080;28;20131;-71
2021/04/23 00:45:43;;;;;;;10.10;4.63;;;6.80;72.80;;;;;;2071923;28;20042;-70
2021/04/23 00:46:44;;;;;;;10.70;5.18;;;6.80;72.50;;;;;;2072724;28;20109;-70
2021/04/23 00:47:47;;;;;;;12.38;4.95;;;6.80;71.90;;;;;;2072678;28;20034;-71
2021/04/23 00:48:48;;;;;;;12.25;4.70;;;6.90;71.40;;;;;;2072763;28;20041;-70
2021/04/23 00:49:51;;;;;;;13.88;4.85;;;6.80;71.10;;;;;;2072680;28;20652;-71
2021/04/23 00:51:17;;;;;;;12.80;4.68;;;6.80;71.50;;;;;;2072719;28;20066;-70
2021/04/23 00:52:18;;;;;;;11.55;4.80;;;6.80;71.10;;;;;;2072009;28;20429;-70
2021/04/23 00:53:24;;;;;;;12.77;4.70;;;6.80;71.10;;;;;;2072029;28;20136;-70
2021/04/23 00:54:26;;;;;;;11.65;4.93;;;6.80;71.40;;;;;;2072110;28;20025;-71
2021/04/23 00:55:26;;;;;;;10.23;4.53;;;6.70;72.60;;;;;;2072000;28;20026;-71
2021/04/23 00:56:33;;;;;;;10.48;4.70;;;6.70;72.70;;;;;;2070566;28;20025;-69
2021/04/23 00:57:34;;;;;;;9.95;4.88;;;6.70;73.60;;;;;;2074877;28;20029;-68
2021/04/23 00:58:36;;;;;;;18.48;5.05;;;6.60;72.90;;;;;;2080152;28;20653;-68
2021/04/23 00:59:36;;;;;;;12.80;4.90;;;6.60;72.40;;;;;;2072565;28;20044;-69
2021/04/23 01:00:37;;;;;;;9.77;4.53;;;6.60;72.80;;;;;;2072668;28;20587;-71
2021/04/23 01:01:49;;;;;;;11.35;5.18;;;6.50;73.10;;;;;;2072684;28;20112;-69
2021/04/23 01:02:50;;;;;;;14.13;4.97;;;6.50;73.90;;;;;;2072688;28;20034;-69
2021/04/23 01:03:52;;;;;;;14.48;5.18;;;6.50;74.80;;;;;;2072660;28;20026;-69
2021/04/23 01:04:52;;;;;;;8.45;4.38;;;6.40;74.10;;;;;;2072664;28;20087;-69
2021/04/23 01:05:53;;;;;;;13.07;5.07;;;6.40;74.70;;;;;;2072009;28;20037;-68
2021/04/23 01:06:54;;;;;;;14.77;5.00;;;6.40;75.80;;;;;;2072433;28;20026;-69
2021/04/23 01:07:55;;;;;;;12.50;4.75;;;6.30;74.60;;;;;;2072640;28;20033;-68
2021/04/23 01:08:59;;;;;;;11.70;5.00;;;6.30;74.60;;;;;;2067205;28;20079;-68
2021/04/23 01:09:59;;;;;;;17.70;5.20;;;6.30;75.50;;;;;;2070775;28;20084;-68
2021/04/23 01:11:02;;;;;;;11.10;4.90;;;6.30;75.40;;;;;;2072995;28;20076;-68
2021/04/23 01:12:05;;;;;;;15.50;5.45;;;6.30;75.80;;;;;;2072840;28;20026;-68
2021/04/23 01:13:05;;;;;;;15.38;5.15;;;6.20;75.70;;;;;;2066011;28;20037;-68
2021/04/23 01:14:07;;;;;;;11.98;5.10;;;6.20;76.10;;;;;;2071907;28;20104;-68
2021/04/23 01:15:10;;;;;;;12.52;5.18;;;6.20;76.20;;;;;;2073152;28;20096;-68
2021/04/23 01:16:18;;;;;;;12.50;4.70;;;6.10;76.20;;;;;;2079564;28;20060;-68
2021/04/23 01:17:18;;;;;;;16.23;5.57;;;6.10;76.40;;;;;;2080553;28;20017;-69
2021/04/23 01:18:19;;;;;;;12.52;5.15;;;6.10;75.90;;;;;;2080728;28;20067;-68
2021/04/23 01:19:23;;;;;;;14.55;5.50;;;6.10;76.60;;;;;;2072193;28;20030;-68
2021/04/23 01:20:24;;;;;;;12.60;5.22;;;6.10;77.50;;;;;;2066152;28;20065;-69
2021/04/23 01:21:28;;;;;;;15.82;5.45;;;6.00;77.50;;;;;;2072734;28;20125;-69
2021/04/23 01:22:29;;;;;;;10.75;5.20;;;6.00;78.20;;;;;;2072992;28;20025;-68
2021/04/23 01:23:30;;;;;;;12.93;5.18;;;6.00;78.50;;;;;;2072777;28;20567;-68
2021/04/23 01:24:32;;;;;;;11.05;5.20;;;6.00;77.20;;;;;;2072626;28;20030;-68
2021/04/23 01:25:32;;;;;;;11.23;5.10;;;6.00;77.30;;;;;;2072551;28;20029;-68
2021/04/23 01:26:40;;;;;;;11.35;4.82;;;6.00;77.70;;;;;;2079643;28;20032;-68
2021/04/23 01:27:41;;;;;;;9.38;4.78;;;5.90;77.30;;;;;;2080051;28;20037;-68
2021/04/23 01:28:43;;;;;;;12.98;5.20;;;5.90;78.00;;;;;;2079926;28;20021;-68
2021/04/23 01:29:43;;;;;;;12.23;5.55;;;5.90;78.10;;;;;;2075842;28;20022;-68
2021/04/23 01:30:44;;;;;;;11.40;5.22;;;5.90;77.90;;;;;;2075685;28;20060;-68
2021/04/23 01:31:50;;;;;;;12.43;5.28;;;5.80;77.60;;;;;;2080000;28;20388;-68
2021/04/23 01:32:51;;;;;;;17.50;5.85;;;5.80;77.50;;;;;;2072226;28;20401;-70
2021/04/23 01:33:58;;;;;;;12.30;5.90;;;5.80;77.80;;;;;;2067141;28;20125;-67
2021/04/23 01:35:00;;;;;;;13.90;5.20;;;5.80;78.20;;;;;;2070207;28;20022;-68
2021/04/23 01:36:00;;;;;;;13.02;5.38;;;5.70;78.50;;;;;;2071914;28;20030;-68
2021/04/23 01:37:02;;;;;;;13.00;5.63;;;5.70;78.30;;;;;;2072050;28;20548;-68
2021/04/23 01:38:03;;;;;;;15.48;5.57;;;5.70;78.70;;;;;;2079579;28;20517;-69
2021/04/23 01:39:10;;;;;;;11.23;5.40;;;5.70;78.60;;;;;;2079586;28;20610;-68
2021/04/23 01:40:12;;;;;;;12.77;5.80;;;5.70;78.20;;;;;;2072089;28;20501;-68
2021/04/23 01:41:13;;;;;;;14.52;5.90;;;5.60;78.90;;;;;;2072036;28;20034;-68
2021/04/23 01:42:14;;;;;;;14.45;6.00;;;5.60;79.70;;;;;;2072123;28;20022;-69
2021/04/23 01:43:16;;;;;;;14.90;6.10;;;5.60;80.00;;;;;;2071972;28;20032;-70
2021/04/23 01:44:18;;;;;;;15.55;5.68;;;5.60;79.30;;;;;;2072084;28;20033;-69
2021/04/23 01:45:19;;;;;;;13.25;5.80;;;5.60;79.00;;;;;;2071961;28;20094;-69
2021/04/23 01:46:19;;;;;;;14.80;5.82;;;5.50;78.60;;;;;;2071578;28;20053;-69
2021/04/23 01:47:20;;;;;;;13.98;5.93;;;5.50;79.50;;;;;;2071457;28;20037;-70
2021/04/23 01:48:21;;;;;;;13.68;6.32;;;5.50;79.60;;;;;;2071487;28;20454;-69
2021/04/23 01:49:22;;;;;;;15.20;5.97;;;5.50;79.80;;;;;;2064883;28;20038;-69
2021/04/23 01:50:23;;;;;;;12.95;5.53;;;5.50;79.60;;;;;;2072120;28;20151;-70
2021/04/23 01:51:24;;;;;;;13.00;5.88;;;5.50;80.10;;;;;;2072071;28;20033;-69
2021/04/23 01:52:25;;;;;;;10.77;5.63;;;5.40;80.00;;;;;;2072172;28;20087;-69
2021/04/23 01:53:26;;;;;;;14.52;6.15;;;5.40;79.40;;;;;;2072141;28;20417;-69
2021/04/23 01:54:28;;;;;;;11.55;5.50;;;5.40;79.50;;;;;;2071905;28;20022;-69
2021/04/23 01:55:28;;;;;;;13.65;5.90;;;5.40;79.30;;;;;;2072381;28;20120;-68
2021/04/23 01:56:29;;;;;;;14.27;5.50;;;5.40;79.50;;;;;;2072405;28;20029;-68
2021/04/23 01:57:30;;;;;;;14.75;5.85;;;5.30;79.80;;;;;;2080481;28;20080;-68
2021/04/23 01:58:31;;;;;;;13.07;5.95;;;5.30;79.80;;;;;;2072206;28;20050;-68
2021/04/23 01:59:34;;;;;;;13.40;5.95;;;5.30;80.10;;;;;;2071904;28;20025;-68
2021/04/23 02:00:43;;;;;;;16.02;6.18;;;5.30;80.10;;;;;;2080876;28;20021;-68
2021/04/23 02:01:44;;;;;;;10.75;5.82;;;5.30;80.30;;;;;;2080943;28;20048;-68
2021/04/23 02:02:45;;;;;;;11.75;6.07;;;5.20;80.60;;;;;;2071948;28;20482;-68
2021/04/23 02:03:47;;;;;;;15.80;6.00;;;5.20;80.50;;;;;;2072396;28;20037;-68
2021/04/23 02:04:48;;;;;;;15.65;6.00;;;5.20;80.80;;;;;;2076813;28;20030;-68
2021/04/23 02:05:51;;;;;;;11.63;6.03;;;5.20;80.30;;;;;;2074230;28;20045;-68
2021/04/23 02:06:52;;;;;;;14.32;5.97;;;5.20;80.00;;;;;;2074213;28;20098;-68
2021/04/23 02:07:54;;;;;;;14.73;5.78;;;5.20;80.60;;;;;;2066934;28;20033;-68
2021/04/23 02:08:56;;;;;;;16.15;6.20;;;5.20;80.70;;;;;;2071122;28;20034;-68
2021/04/23 02:09:57;;;;;;;15.27;6.10;;;5.10;80.70;;;;;;2075028;28;20030;-68
2021/04/23 02:11:03;;;;;;;15.95;6.50;;;5.10;80.00;;;;;;2073159;28;20478;-68
2021/04/23 02:12:05;;;;;;;16.48;6.43;;;5.10;80.10;;;;;;2072821;28;20083;-68
2021/04/23 02:13:07;;;;;;;17.42;6.35;;;5.10;79.90;;;;;;2080192;28;20029;-68
2021/04/23 02:14:08;;;;;;;13.68;6.22;;;5.10;80.30;;;;;;2080529;28;20033;-68
2021/04/23 02:15:11;;;;;;;13.77;6.20;;;5.10;81.10;;;;;;2071978;28;20255;-68
2021/04/23 02:16:14;;;;;;;13.88;6.53;;;5.10;81.40;;;;;;2063782;28;20475;-68
2021/04/23 02:17:17;;;;;;;15.98;6.88;;;5.00;81.10;;;;;;2071882;28;20072;-69
2021/04/23 02:18:19;;;;;;;14.93;6.18;;;5.00;81.40;;;;;;2070745;28;20030;-68
2021/04/23 02:19:21;;;;;;;12.63;5.90;;;5.00;81.30;;;;;;2071945;28;20473;-68
2021/04/23 02:20:25;;;;;;;11.70;6.15;;;5.00;81.60;;;;;;2072356;28;20056;-68
2021/04/23 02:21:26;;;;;;;12.95;6.65;;;5.00;81.30;;;;;;2073311;28;20089;-69
2021/04/23 02:22:27;;;;;;;14.20;6.75;;;5.00;82.50;;;;;;2073128;28;20458;-68
2021/04/23 02:23:28;;;;;;;15.00;6.45;;;5.00;83.10;;;;;;2072146;28;20429;-68
2021/04/23 02:24:28;;;;;;;18.17;6.80;;;4.90;82.90;;;;;;2071959;28;20105;-68
2021/04/23 02:25:30;;;;;;;15.68;7.05;;;4.90;82.20;;;;;;2079659;28;20021;-69
2021/04/23 02:26:33;;;;;;;13.88;6.55;;;4.90;81.80;;;;;;2071575;28;20029;-69
2021/04/23 02:27:34;;;;;;;13.32;7.07;;;4.90;81.70;;;;;;2071200;28;20033;-69
2021/04/23 02:28:35;;;;;;;14.95;6.55;;;4.90;81.50;;;;;;2071232;28;20465;-68
2021/04/23 02:29:35;;;;;;;19.98;6.90;;;4.80;82.00;;;;;;2060125;28;554908;-68
2021/04/23 02:30:39;;;;;;;15.55;6.75;;;4.80;82.60;;;;;;2069190;28;20096;-71
2021/04/23 02:31:44;;;;;;;16.00;7.18;;;4.80;82.50;;;;;;2075051;28;20096;-69
2021/04/23 02:32:45;;;;;;;19.25;6.97;;;4.80;82.00;;;;;;2079210;28;20083;-69
2021/04/23 02:33:48;;;;;;;15.27;7.10;;;4.80;82.00;;;;;;2072261;28;20100;-69
2021/04/23 02:34:49;;;;;;;15.57;6.85;;;4.80;82.20;;;;;;2072213;28;20026;-69
2021/04/23 02:35:52;;;;;;;16.55;7.20;;;4.70;82.60;;;;;;2071059;28;20425;-69
2021/04/23 02:36:53;;;;;;;18.80;6.97;;;4.80;82.60;;;;;;2071282;28;20030;-69
2021/04/23 02:37:54;;;;;;;17.85;7.28;;;4.70;82.30;;;;;;2069272;28;20041;-69
2021/04/23 02:38:56;;;;;;;17.65;7.60;;;4.70;82.10;;;;;;2071334;28;20048;-69
2021/04/23 02:39:56;;;;;;;19.23;7.22;;;4.70;82.60;;;;;;2071399;28;20018;-70
2021/04/23 02:40:58;;;;;;;15.80;6.90;;;4.70;82.70;;;;;;2069742;28;20457;-69
2021/04/23 02:41:59;;;;;;;16.23;7.32;;;4.70;82.70;;;;;;2079475;28;20564;-69
2021/04/23 02:43:06;;;;;;;18.13;7.50;;;4.70;82.60;;;;;;2073456;28;20037;-69
2021/04/23 02:44:08;;;;;;;16.25;7.32;;;4.60;82.40;;;;;;2071122;28;20029;-69
2021/04/23 02:45:13;;;;;;;14.90;7.03;;;4.60;82.40;;;;;;2079726;28;20029;-69
2021/04/23 02:46:15;;;;;;;18.67;7.70;;;4.60;82.70;;;;;;2070610;28;20529;-70
2021/04/23 02:47:15;;;;;;;15.15;7.20;;;4.60;82.70;;;;;;2072177;28;20061;-69
2021/04/23 02:48:17;;;;;;;16.52;7.68;;;4.60;82.90;;;;;;2072122;28;20026;-69
2021/04/23 02:49:18;;;;;;;19.33;7.70;;;4.60;83.10;;;;;;2072124;28;20192;-69
2021/04/23 02:50:23;;;;;;;15.50;7.60;;;4.60;83.30;;;;;;2079780;28;20033;-69
2021/04/23 02:51:30;;;;;;;19.13;7.75;;;4.60;83.80;;;;;;2079557;28;20013;-69
2021/04/23 02:52:31;;;;;;;16.98;7.30;;;4.60;83.40;;;;;;2072027;28;20025;-69
2021/04/23 02:53:32;;;;;;;18.73;7.70;;;4.60;83.30;;;;;;2072064;28;20256;-68
2021/04/23 02:54:33;;;;;;;20.73;7.63;;;4.60;83.30;;;;;;2079300;28;20017;-70
2021/04/23 02:55:34;;;;;;;15.43;7.75;;;4.50;83.40;;;;;;2079778;28;20039;-69
2021/04/23 02:56:35;;;;;;;19.52;7.90;;;4.60;84.00;;;;;;2071059;28;20116;-69
2021/04/23 02:57:35;;;;;;;19.05;7.72;;;4.50;83.50;;;;;;2072211;28;20030;-69
2021/04/23 02:58:37;;;;;;;19.88;8.07;;;4.60;83.50;;;;;;2072027;28;20033;-69
2021/04/23 02:59:40;;;;;;;16.60;7.60;;;4.60;83.50;;;;;;2076437;28;20033;-69
2021/04/23 03:00:47;;;;;;;16.80;7.65;;;4.50;83.80;;;;;;2067015;28;20547;-69
2021/04/23 03:01:52;;;;;;;20.90;8.05;;;4.50;84.20;;;;;;2072307;28;20030;-69
2021/04/23 03:02:53;;;;;;;19.95;7.95;;;4.50;84.40;;;;;;2073871;28;20025;-69
2021/04/23 03:03:54;;;;;;;17.33;7.95;;;4.50;84.40;;;;;;2063306;28;20041;-69
2021/04/23 03:04:56;;;;;;;15.38;7.38;;;4.50;84.30;;;;;;2068788;28;20654;-68
2021/04/23 03:05:58;;;;;;;14.93;7.75;;;4.50;84.30;;;;;;2066058;28;20426;-68
2021/04/23 03:06:59;;;;;;;14.45;7.97;;;4.50;84.20;;;;;;2064060;28;20054;-68
2021/04/23 03:08:00;;;;;;;18.05;7.72;;;4.50;84.20;;;;;;2064231;28;20030;-68
2021/04/23 03:09:03;;;;;;;22.42;8.50;;;4.50;84.10;;;;;;2070673;28;20038;-70
2021/04/23 03:10:05;;;;;;;15.73;7.68;;;4.50;84.40;;;;;;2071605;28;20529;-69
2021/04/23 03:11:19;;;;;;;15.73;7.95;;;4.50;84.80;;;;;;2071478;28;20029;-70
2021/04/23 03:12:19;;;;;;;15.02;8.20;;;4.40;84.80;;;;;;2078812;28;20025;-70
2021/04/23 03:13:23;;;;;;;19.50;8.45;;;4.40;84.70;;;;;;2072325;28;20083;-70
2021/04/23 03:14:25;;;;;;;24.52;8.30;;;4.40;84.50;;;;;;2072173;28;20045;-69
2021/04/23 03:15:27;;;;;;;19.85;8.57;;;4.40;84.20;;;;;;2070666;28;20374;-69
2021/04/23 03:16:30;;;;;;;18.95;8.40;;;4.40;84.40;;;;;;2065520;28;20026;-70
2021/04/23 03:17:31;;;;;;;17.50;7.90;;;4.40;84.70;;;;;;2071331;28;20051;-68
2021/04/23 03:18:31;;;;;;;18.25;8.48;;;4.50;85.10;;;;;;2068967;28;20104;-69
2021/04/23 03:19:32;;;;;;;17.42;8.20;;;4.50;85.30;;;;;;2071412;28;20077;-69
2021/04/23 03:20:33;;;;;;;19.08;8.32;;;4.40;84.20;;;;;;2063945;28;20022;-69
2021/04/23 03:21:34;;;;;;;17.77;7.80;;;4.50;85.30;;;;;;2074121;28;20053;-69
2021/04/23 03:22:34;;;;;;;21.50;9.15;;;4.50;84.70;;;;;;2076744;28;20022;-69
2021/04/23 03:23:35;;;;;;;18.98;8.73;;;4.50;85.30;;;;;;2066802;28;20061;-69
2021/04/23 03:24:36;;;;;;;19.60;8.40;;;4.50;85.10;;;;;;2070961;28;20057;-69
2021/04/23 03:25:37;;;;;;;20.38;8.40;;;4.50;84.80;;;;;;2071286;28;20026;-69
2021/04/23 03:26:39;;;;;;;16.77;7.95;;;4.50;84.60;;;;;;2071717;28;20080;-69
2021/04/23 03:27:41;;;;;;;16.95;8.43;;;4.50;84.60;;;;;;2075890;28;20042;-69
2021/04/23 03:28:43;;;;;;;19.08;8.63;;;4.50;84.60;;;;;;2075612;28;20029;-69
2021/04/23 03:29:44;;;;;;;17.35;8.38;;;4.50;84.20;;;;;;2071698;28;20788;-69
2021/04/23 03:30:45;;;;;;;19.45;8.90;;;4.50;84.40;;;;;;2068744;28;20030;-69
2021/04/23 03:31:46;;;;;;;16.45;8.25;;;4.50;84.80;;;;;;2072923;28;20440;-70
2021/04/23 03:32:47;;;;;;;18.80;8.50;;;4.50;84.70;;;;;;2076970;28;20018;-69
2021/04/23 03:33:48;;;;;;;16.80;8.45;;;4.50;84.40;;;;;;2077126;28;20460;-70
2021/04/23 03:34:49;;;;;;;18.83;8.30;;;4.40;84.70;;;;;;2076618;28;20543;-69
2021/04/23 03:35:54;;;;;;;21.33;9.25;;;4.40;85.10;;;;;;2069449;28;20077;-69
2021/04/23 03:36:54;;;;;;;18.27;8.27;;;4.40;85.30;;;;;;2072114;28;20021;-69
2021/04/23 03:37:56;;;;;;;19.33;8.80;;;4.40;85.30;;;;;;2073711;28;20457;-69
2021/04/23 03:38:58;;;;;;;25.10;9.23;;;4.40;85.40;;;;;;2073342;28;20052;-69
2021/04/23 03:39:58;;;;;;;16.98;8.45;;;4.40;85.50;;;;;;2074706;28;20025;-69
2021/04/23 03:41:01;;;;;;;19.10;9.07;;;4.30;85.60;;;;;;2078882;28;20088;-69
2021/04/23 03:42:02;;;;;;;18.90;8.68;;;4.40;85.50;;;;;;2066181;28;20042;-69
2021/04/23 03:43:04;;;;;;;25.17;8.77;;;4.40;85.50;;;;;;2064695;28;20038;-69
2021/04/23 03:44:06;;;;;;;16.58;8.43;;;4.30;85.40;;;;;;2071447;28;20021;-69
2021/04/23 03:45:10;;;;;;;18.88;8.68;;;4.40;85.20;;;;;;2072702;28;20034;-69
2021/04/23 03:46:11;;;;;;;18.70;8.45;;;4.30;85.30;;;;;;2072891;28;20117;-69
2021/04/23 03:47:12;;;;;;;18.55;8.65;;;4.30;85.20;;;;;;2073215;28;20040;-69
2021/04/23 03:48:13;;;;;;;20.45;8.43;;;4.30;85.50;;;;;;2072764;28;20030;-69
2021/04/23 03:49:13;;;;;;;20.88;9.00;;;4.30;85.60;;;;;;2080731;28;20036;-69
2021/04/23 03:50:17;;;;;;;19.02;9.05;;;4.20;86.00;;;;;;2073092;28;20048;-70
2021/04/23 03:51:19;;;;;;;18.25;9.35;;;4.20;86.00;;;;;;2073120;28;20092;-70
2021/04/23 03:52:19;;;;;;;20.45;8.88;;;4.20;86.80;;;;;;2072545;28;20022;-69
2021/04/23 03:53:20;;;;;;;25.10;9.57;;;4.20;86.20;;;;;;2072567;28;20079;-69
2021/04/23 03:54:20;;;;;;;21.70;9.65;;;4.20;86.50;;;;;;2072756;28;20034;-69
2021/04/23 03:55:29;;;;;;;20.63;9.45;;;4.20;87.00;;;;;;2072588;28;20056;-69
2021/04/23 03:56:29;;;;;;;19.52;9.38;;;4.20;86.60;;;;;;2072890;28;20093;-69
2021/04/23 03:57:30;;;;;;;22.58;9.38;;;4.20;86.40;;;;;;2080948;28;20032;-69
2021/04/23 03:58:32;;;;;;;19.75;9.27;;;4.30;86.50;;;;;;2080622;28;20497;-69
2021/04/23 03:59:33;;;;;;;22.05;9.50;;;4.30;86.40;;;;;;2073009;28;20026;-69
2021/04/23 04:00:40;;;;;;;20.58;9.23;;;4.30;86.40;;;;;;2073010;28;20047;-69
2021/04/23 04:01:41;;;;;;;22.40;9.50;;;4.40;86.60;;;;;;2073064;28;20091;-69
2021/04/23 04:02:42;;;;;;;23.33;9.80;;;4.30;86.20;;;;;;2073446;28;20544;-69
2021/04/23 04:03:44;;;;;;;21.48;9.57;;;4.40;85.90;;;;;;2069429;28;20042;-68
2021/04/23 04:04:45;;;;;;;20.02;9.45;;;4.40;85.80;;;;;;2069117;28;20729;-69
2021/04/23 04:05:46;;;;;;;18.50;9.52;;;4.40;85.70;;;;;;2072673;28;20037;-69
2021/04/23 04:06:47;;;;;;;23.48;9.70;;;4.50;85.60;;;;;;2073074;28;20393;-69
2021/04/23 04:07:49;;;;;;;19.60;9.30;;;4.50;85.50;;;;;;2072422;28;20041;-69
2021/04/23 04:08:49;;;;;;;24.02;9.98;;;4.50;85.60;;;;;;2072815;28;20460;-69
2021/04/23 04:09:50;;;;;;;21.38;9.63;;;4.50;85.50;;;;;;2080860;28;20194;-70
2021/04/23 04:10:52;;;;;;;21.75;9.75;;;4.60;85.90;;;;;;2073136;28;20099;-70
2021/04/23 04:11:52;;;;;;;24.67;9.95;;;4.60;86.00;;;;;;2073337;28;20101;-70
2021/04/23 04:12:53;;;;;;;24.08;10.00;;;4.70;86.20;;;;;;2073203;28;20501;-70
2021/04/23 04:13:54;;;;;;;18.17;9.52;;;4.70;86.10;;;;;;2073182;28;20080;-70
2021/04/23 04:14:55;;;;;;;17.98;9.32;;;4.70;86.60;;;;;;2073017;28;20026;-69
2021/04/23 04:15:55;;;;;;;17.30;8.88;;;4.70;86.10;;;;;;2073327;28;20113;-70
2021/04/23 04:16:56;;;;;;;18.25;9.30;;;4.80;85.60;;;;;;2073267;28;20041;-69
2021/04/23 04:17:57;;;;;;;23.67;9.77;;;4.80;85.60;;;;;;2072996;28;20057;-70
2021/04/23 04:18:58;;;;;;;22.83;9.63;;;4.80;85.60;;;;;;2073653;28;20045;-70
2021/04/23 04:19:59;;;;;;;22.70;9.45;;;4.80;85.00;;;;;;2067104;28;20034;-70
2021/04/23 04:21:00;;;;;;;26.38;9.95;;;4.80;84.80;;;;;;2070764;28;20034;-70
2021/04/23 04:22:01;;;;;;;18.15;9.52;;;4.80;84.80;;;;;;2072894;28;20423;-70
2021/04/23 04:23:02;;;;;;;22.05;9.70;;;4.80;85.60;;;;;;2080731;28;20036;-70
2021/04/23 04:24:03;;;;;;;18.58;9.73;;;4.80;85.80;;;;;;2073099;28;20097;-70
2021/04/23 04:25:06;;;;;;;20.88;9.48;;;4.80;85.90;;;;;;2071577;28;20040;-70
2021/04/23 04:26:06;;;;;;;28.45;9.95;;;4.90;86.10;;;;;;2063918;28;20034;-70
2021/04/23 04:27:07;;;;;;;22.98;9.60;;;4.90;86.60;;;;;;2064222;28;20084;-71
2021/04/23 04:28:10;;;;;;;21.75;9.75;;;4.90;86.30;;;;;;2064933;28;20031;-70
2021/04/23 04:29:11;;;;;;;20.73;10.00;;;4.90;85.80;;;;;;2072416;28;20378;-70
2021/04/23 04:30:12;;;;;;;22.02;9.88;;;5.00;86.80;;;;;;2072773;28;20066;-70
2021/04/23 04:31:13;;;;;;;22.58;10.13;;;4.90;85.70;;;;;;2072779;28;20026;-70
2021/04/23 04:32:15;;;;;;;23.48;9.63;;;5.00;86.30;;;;;;2072806;28;20060;-70
2021/04/23 04:33:16;;;;;;;21.77;9.73;;;5.00;86.90;;;;;;2072816;28;20068;-70
2021/04/23 04:34:17;;;;;;;23.30;9.35;;;5.00;86.20;;;;;;2072897;28;20022;-70
2021/04/23 04:35:18;;;;;;;21.08;9.68;;;5.10;86.00;;;;;;2072921;28;20424;-70
2021/04/23 04:36:19;;;;;;;20.95;9.77;;;5.10;85.90;;;;;;2071819;28;20460;-71
2021/04/23 04:37:20;;;;;;;21.85;9.75;;;5.10;85.40;;;;;;2072171;28;20030;-70
2021/04/23 04:38:21;;;;;;;23.00;10.30;;;5.10;85.20;;;;;;2072800;28;20053;-70
2021/04/23 04:39:21;;;;;;;23.02;9.70;;;5.10;85.20;;;;;;2072639;28;20097;-70
2021/04/23 04:40:22;;;;;;;23.05;10.15;;;5.10;85.30;;;;;;2072903;28;20036;-70
2021/04/23 04:41:23;;;;;;;24.33;9.57;;;5.10;85.50;;;;;;2070821;28;20029;-70
2021/04/23 04:42:25;;;;;;;22.85;9.57;;;5.10;84.90;;;;;;2066155;28;20030;-70
2021/04/23 04:43:25;;;;;;;20.67;10.25;;;5.10;85.10;;;;;;2080849;28;20026;-70
2021/04/23 04:44:26;;;;;;;23.75;10.18;;;5.10;84.80;;;;;;2080986;28;20388;-70
2021/04/23 04:45:27;;;;;;;21.73;8.77;;;5.10;84.90;;;;;;2073213;28;20120;-71
2021/04/23 04:46:28;;;;;;;24.08;9.77;;;5.10;84.60;;;;;;2072434;28;20029;-70
2021/04/23 04:47:30;;;;;;;18.90;9.50;;;5.10;84.10;;;;;;2072750;28;20040;-69
2021/04/23 04:48:31;;;;;;;24.98;10.07;;;5.10;84.50;;;;;;2072563;28;20026;-69
2021/04/23 04:49:32;;;;;;;17.75;9.57;;;5.10;84.80;;;;;;2072130;28;20034;-69
2021/04/23 04:50:36;;;;;;;20.58;10.00;;;5.20;85.60;;;;;;2071826;28;20030;-69
2021/04/23 04:51:37;;;;;;;21.67;9.45;;;5.20;85.30;;;;;;2072689;28;20024;-69
2021/04/23 04:52:38;;;;;;;22.33;9.70;;;5.10;84.50;;;;;;2072787;28;20500;-69
2021/04/23 04:53:39;;;;;;;24.85;10.38;;;5.10;84.90;;;;;;2071990;28;20076;-69
2021/04/23 04:54:40;;;;;;;25.10;9.57;;;5.10;84.90;;;;;;2063771;28;20429;-70
2021/04/23 04:55:43;;;;;;;24.40;9.45;;;5.10;85.10;;;;;;2072021;28;20084;-70
2021/04/23 04:56:43;;;;;;;20.80;9.35;;;5.20;85.00;;;;;;2072629;28;20026;-70
2021/04/23 04:57:44;;;;;;;23.52;9.90;;;5.20;85.00;;;;;;2072654;28;20105;-70
2021/04/23 04:58:45;;;;;;;21.25;9.73;;;5.20;84.90;;;;;;2072559;28;20464;-70
2021/04/23 04:59:47;;;;;;;24.20;9.73;;;5.20;84.90;;;;;;2072497;28;20104;-70
2021/04/23 05:00:48;;;;;;;21.30;9.32;;;5.20;84.40;;;;;;2072658;28;20054;-70
2021/04/23 05:01:49;;;;;;;19.98;9.55;;;5.20;84.50;;;;;;2072494;28;20030;-70
2021/04/23 05:02:50;;;;;;;26.95;10.50;;;5.20;84.60;;;;;;2072499;28;20026;-70
2021/04/23 05:03:51;;;;;;;19.92;9.35;;;5.20;85.30;;;;;;2067480;28;20102;-70
2021/04/23 05:04:51;;;;;;;20.48;9.18;;;5.20;85.60;;;;;;2069528;28;20025;-70
2021/04/23 05:05:53;;;;;;;20.92;9.75;;;5.30;85.40;;;;;;2071936;28;20030;-69
2021/04/23 05:06:53;;;;;;;22.30;10.00;;;5.30;85.90;;;;;;2074644;28;20030;-70
2021/04/23 05:07:55;;;;;;;24.45;9.73;;;5.30;85.40;;;;;;2077447;28;20424;-72
2021/04/23 05:08:55;;;;;;;21.52;10.18;;;5.30;84.50;;;;;;2072456;28;20022;-70
2021/04/23 05:09:56;;;;;;;25.98;9.85;;;5.30;84.60;;;;;;2072365;28;20025;-70
2021/04/23 05:10:57;;;;;;;24.40;10.00;;;5.30;85.00;;;;;;2072426;28;20030;-70
2021/04/23 05:11:58;;;;;;;23.50;9.90;;;5.30;84.50;;;;;;2080047;28;20087;-70
2021/04/23 05:12:58;;;;;;;23.98;9.52;;;5.30;85.10;;;;;;2080023;28;20025;-70
2021/04/23 05:13:59;;;;;;;23.92;10.23;;;5.30;85.10;;;;;;2072453;28;20037;-70
2021/04/23 05:15:00;;;;;;;24.02;10.13;;;5.40;85.60;;;;;;2079874;28;20528;-70
2021/04/23 05:16:00;;;;;;;23.00;9.75;;;5.40;85.00;;;;;;2079493;28;20071;-70
2021/04/23 05:17:01;;;;;;;24.77;9.82;;;5.40;84.60;;;;;;2079969;28;20033;-70
2021/04/23 05:18:01;;;;;;;25.95;10.25;;;5.40;84.20;;;;;;2071745;28;20041;-70
2021/04/23 05:19:02;;;;;;;28.65;9.82;;;5.40;84.90;;;;;;2071807;28;20156;-70
2021/04/23 05:20:06;;;;;;;20.70;9.98;;;5.40;84.10;;;;;;2072648;28;20030;-70
2021/04/23 05:21:06;;;;;;;24.63;10.18;;;5.40;84.30;;;;;;2072428;28;20036;-70
2021/04/23 05:22:07;;;;;;;23.75;10.23;;;5.40;84.20;;;;;;2072577;28;20109;-71
2021/04/23 05:23:08;;;;;;;20.38;9.82;;;5.40;84.00;;;;;;2072559;28;20654;-70